sensor_id;sensor_type;location;lat;lon;timestamp;P1;durP1;ratioP1;P2;durP2;ratioP2
69280;SDS011;56392;51.082;17.080;2022-08-01T00:01:49;8.60;;;4.20;;
69280;SDS011;56392;51.082;17.080;2022-08-01T00:06:55;8.50;;;3.13;;
69280;SDS011;56392;51.082;17.080;2022-08-01T00:11:58;7.07;;;3.20;;
69280;SDS011;56392;51.082;17.080;2022-08-01T00:17:01;7.75;;;2.75;;
69280;SDS011;56392;51.082;17.080;2022-08-01T00:22:05;8.43;;;2.97;;
69280;SDS011;56392;51.082;17.080;2022-08-01T00:27:08;8.30;;;2.90;;
69280;SDS011;56392;51.082;17.080;2022-08-01T00:32:10;7.38;;;2.90;;
69280;SDS011;56392;51.082;17.080;2022-08-01T00:37:14;6.33;;;2.93;;
69280;SDS011;56392;51.082;17.080;2022-08-01T00:42:17;8.00;;;2.95;;
69280;SDS011;56392;51.082;17.080;2022-08-01T00:47:20;7.60;;;2.97;;
69280;SDS011;56392;51.082;17.080;2022-08-01T00:52:24;7.70;;;3.13;;
69280;SDS011;56392;51.082;17.080;2022-08-01T00:57:26;7.20;;;3.30;;
69280;SDS011;56392;51.082;17.080;2022-08-01T01:02:30;6.55;;;3.25;;
69280;SDS011;56392;51.082;17.080;2022-08-01T01:07:41;7.80;;;3.55;;
69280;SDS011;56392;51.082;17.080;2022-08-01T01:12:50;7.37;;;3.77;;
69280;SDS011;56392;51.082;17.080;2022-08-01T01:17:58;7.95;;;3.70;;
69280;SDS011;56392;51.082;17.080;2022-08-01T01:23:12;8.85;;;3.45;;
69280;SDS011;56392;51.082;17.080;2022-08-01T01:28:27;7.77;;;3.47;;
69280;SDS011;56392;51.082;17.080;2022-08-01T01:33:39;8.07;;;3.47;;
69280;SDS011;56392;51.082;17.080;2022-08-01T01:38:42;7.93;;;3.42;;
69280;SDS011;56392;51.082;17.080;2022-08-01T01:43:47;7.37;;;3.57;;
69280;SDS011;56392;51.082;17.080;2022-08-01T01:48:51;10.70;;;4.43;;
69280;SDS011;56392;51.082;17.080;2022-08-01T01:53:56;8.07;;;3.40;;
69280;SDS011;56392;51.082;17.080;2022-08-01T01:59:00;9.88;;;3.95;;
69280;SDS011;56392;51.082;17.080;2022-08-01T02:04:06;8.27;;;3.87;;
69280;SDS011;56392;51.082;17.080;2022-08-01T02:09:09;10.07;;;3.88;;
69280;SDS011;56392;51.082;17.080;2022-08-01T02:14:12;8.65;;;3.58;;
69280;SDS011;56392;51.082;17.080;2022-08-01T02:19:17;8.03;;;3.63;;
69280;SDS011;56392;51.082;17.080;2022-08-01T02:24:24;8.27;;;3.33;;
69280;SDS011;56392;51.082;17.080;2022-08-01T02:29:36;8.43;;;3.20;;
69280;SDS011;56392;51.082;17.080;2022-08-01T02:34:43;7.97;;;3.90;;
69280;SDS011;56392;51.082;17.080;2022-08-01T02:39:50;7.60;;;3.33;;
69280;SDS011;56392;51.082;17.080;2022-08-01T02:44:55;9.15;;;3.55;;
69280;SDS011;56392;51.082;17.080;2022-08-01T02:50:01;9.90;;;3.80;;
69280;SDS011;56392;51.082;17.080;2022-08-01T02:55:04;8.07;;;4.07;;
69280;SDS011;56392;51.082;17.080;2022-08-01T03:00:09;9.50;;;4.20;;
69280;SDS011;56392;51.082;17.080;2022-08-01T03:05:14;7.68;;;3.85;;
69280;SDS011;56392;51.082;17.080;2022-08-01T03:10:19;7.60;;;3.77;;
69280;SDS011;56392;51.082;17.080;2022-08-01T03:15:22;9.32;;;4.20;;
69280;SDS011;56392;51.082;17.080;2022-08-01T03:20:28;9.05;;;4.40;;
69280;SDS011;56392;51.082;17.080;2022-08-01T03:25:34;9.77;;;4.50;;
69280;SDS011;56392;51.082;17.080;2022-08-01T03:30:38;9.67;;;4.73;;
69280;SDS011;56392;51.082;17.080;2022-08-01T03:35:45;8.93;;;4.30;;
69280;SDS011;56392;51.082;17.080;2022-08-01T03:40:52;8.90;;;4.15;;
69280;SDS011;56392;51.082;17.080;2022-08-01T03:45:58;10.70;;;4.30;;
69280;SDS011;56392;51.082;17.080;2022-08-01T03:51:09;9.57;;;4.43;;
69280;SDS011;56392;51.082;17.080;2022-08-01T03:56:16;8.80;;;4.18;;
69280;SDS011;56392;51.082;17.080;2022-08-01T04:01:21;8.80;;;4.20;;
69280;SDS011;56392;51.082;17.080;2022-08-01T04:06:25;9.95;;;4.18;;
69280;SDS011;56392;51.082;17.080;2022-08-01T04:11:27;9.95;;;4.28;;
69280;SDS011;56392;51.082;17.080;2022-08-01T04:16:31;11.33;;;4.60;;
69280;SDS011;56392;51.082;17.080;2022-08-01T04:21:35;10.43;;;6.10;;
69280;SDS011;56392;51.082;17.080;2022-08-01T04:26:38;11.77;;;4.53;;
69280;SDS011;56392;51.082;17.080;2022-08-01T04:31:43;11.13;;;4.38;;
69280;SDS011;56392;51.082;17.080;2022-08-01T04:36:50;14.23;;;4.83;;
69280;SDS011;56392;51.082;17.080;2022-08-01T04:41:54;8.43;;;3.95;;
69280;SDS011;56392;51.082;17.080;2022-08-01T04:46:58;9.30;;;4.72;;
69280;SDS011;56392;51.082;17.080;2022-08-01T04:52:03;10.87;;;4.87;;
69280;SDS011;56392;51.082;17.080;2022-08-01T04:57:07;10.25;;;4.43;;
69280;SDS011;56392;51.082;17.080;2022-08-01T05:02:10;11.00;;;4.88;;
69280;SDS011;56392;51.082;17.080;2022-08-01T05:07:16;9.00;;;4.87;;
69280;SDS011;56392;51.082;17.080;2022-08-01T05:12:18;9.77;;;4.90;;
69280;SDS011;56392;51.082;17.080;2022-08-01T05:17:21;9.02;;;4.78;;
69280;SDS011;56392;51.082;17.080;2022-08-01T05:22:25;10.63;;;5.22;;
69280;SDS011;56392;51.082;17.080;2022-08-01T05:27:28;11.93;;;5.10;;
69280;SDS011;56392;51.082;17.080;2022-08-01T05:32:30;9.80;;;4.97;;
69280;SDS011;56392;51.082;17.080;2022-08-01T05:37:35;9.52;;;5.05;;
69280;SDS011;56392;51.082;17.080;2022-08-01T05:42:38;11.80;;;5.47;;
69280;SDS011;56392;51.082;17.080;2022-08-01T05:47:40;11.43;;;5.68;;
69280;SDS011;56392;51.082;17.080;2022-08-01T05:52:44;11.32;;;5.90;;
69280;SDS011;56392;51.082;17.080;2022-08-01T05:57:47;13.93;;;5.97;;
69280;SDS011;56392;51.082;17.080;2022-08-01T06:02:49;10.77;;;6.10;;
69280;SDS011;56392;51.082;17.080;2022-08-01T06:07:53;12.23;;;6.07;;
69280;SDS011;56392;51.082;17.080;2022-08-01T06:12:56;10.77;;;5.72;;
69280;SDS011;56392;51.082;17.080;2022-08-01T06:17:59;11.50;;;6.27;;
69280;SDS011;56392;51.082;17.080;2022-08-01T06:23:03;10.70;;;6.45;;
69280;SDS011;56392;51.082;17.080;2022-08-01T06:28:06;12.50;;;6.45;;
69280;SDS011;56392;51.082;17.080;2022-08-01T06:33:08;11.90;;;6.63;;
69280;SDS011;56392;51.082;17.080;2022-08-01T06:38:15;13.43;;;5.93;;
69280;SDS011;56392;51.082;17.080;2022-08-01T06:43:17;15.57;;;5.68;;
69280;SDS011;56392;51.082;17.080;2022-08-01T06:48:20;13.97;;;6.10;;
69280;SDS011;56392;51.082;17.080;2022-08-01T06:53:24;15.57;;;6.10;;
69280;SDS011;56392;51.082;17.080;2022-08-01T06:58:27;11.90;;;6.10;;
69280;SDS011;56392;51.082;17.080;2022-08-01T07:03:30;11.25;;;5.35;;
69280;SDS011;56392;51.082;17.080;2022-08-01T07:08:34;11.90;;;5.03;;
69280;SDS011;56392;51.082;17.080;2022-08-01T07:13:36;11.63;;;5.03;;
69280;SDS011;56392;51.082;17.080;2022-08-01T07:18:39;11.35;;;4.65;;
69280;SDS011;56392;51.082;17.080;2022-08-01T07:23:43;8.17;;;3.77;;
69280;SDS011;56392;51.082;17.080;2022-08-01T07:28:46;9.40;;;4.03;;
69280;SDS011;56392;51.082;17.080;2022-08-01T07:33:48;8.43;;;3.80;;
69280;SDS011;56392;51.082;17.080;2022-08-01T07:38:52;8.93;;;3.80;;
69280;SDS011;56392;51.082;17.080;2022-08-01T07:43:55;10.73;;;3.80;;
69280;SDS011;56392;51.082;17.080;2022-08-01T07:48:58;8.80;;;3.75;;
69280;SDS011;56392;51.082;17.080;2022-08-01T07:54:02;9.13;;;3.47;;
69280;SDS011;56392;51.082;17.080;2022-08-01T07:59:04;9.57;;;3.70;;
69280;SDS011;56392;51.082;17.080;2022-08-01T08:04:07;9.32;;;3.20;;
69280;SDS011;56392;51.082;17.080;2022-08-01T08:09:11;10.13;;;3.50;;
69280;SDS011;56392;51.082;17.080;2022-08-01T08:14:14;7.87;;;3.57;;
69280;SDS011;56392;51.082;17.080;2022-08-01T08:19:17;8.13;;;3.25;;
69280;SDS011;56392;51.082;17.080;2022-08-01T08:24:21;8.07;;;3.80;;
69280;SDS011;56392;51.082;17.080;2022-08-01T08:29:25;7.50;;;3.15;;
69280;SDS011;56392;51.082;17.080;2022-08-01T08:34:28;7.87;;;3.37;;
69280;SDS011;56392;51.082;17.080;2022-08-01T08:39:33;8.07;;;3.60;;
69280;SDS011;56392;51.082;17.080;2022-08-01T08:44:35;7.30;;;3.38;;
69280;SDS011;56392;51.082;17.080;2022-08-01T08:49:40;8.27;;;3.40;;
69280;SDS011;56392;51.082;17.080;2022-08-01T08:54:46;7.25;;;3.53;;
69280;SDS011;56392;51.082;17.080;2022-08-01T08:59:49;9.18;;;3.75;;
69280;SDS011;56392;51.082;17.080;2022-08-01T09:04:55;10.40;;;3.80;;
69280;SDS011;56392;51.082;17.080;2022-08-01T09:09:59;9.63;;;3.70;;
69280;SDS011;56392;51.082;17.080;2022-08-01T09:15:02;8.32;;;3.53;;
69280;SDS011;56392;51.082;17.080;2022-08-01T09:20:05;10.23;;;3.55;;
69280;SDS011;56392;51.082;17.080;2022-08-01T09:25:10;7.47;;;3.67;;
69280;SDS011;56392;51.082;17.080;2022-08-01T09:30:13;8.65;;;3.70;;
69280;SDS011;56392;51.082;17.080;2022-08-01T09:35:24;8.00;;;3.67;;
69280;SDS011;56392;51.082;17.080;2022-08-01T09:40:40;8.50;;;3.60;;
69280;SDS011;56392;51.082;17.080;2022-08-01T09:45:46;8.77;;;3.60;;
69280;SDS011;56392;51.082;17.080;2022-08-01T09:50:50;9.00;;;3.60;;
69280;SDS011;56392;51.082;17.080;2022-08-01T09:55:55;9.57;;;3.87;;
69280;SDS011;56392;51.082;17.080;2022-08-01T10:01:10;9.73;;;3.20;;
69280;SDS011;56392;51.082;17.080;2022-08-01T10:06:18;6.55;;;3.33;;
69280;SDS011;56392;51.082;17.080;2022-08-01T10:11:23;7.72;;;3.40;;
69280;SDS011;56392;51.082;17.080;2022-08-01T10:16:26;8.50;;;3.40;;
69280;SDS011;56392;51.082;17.080;2022-08-01T10:21:30;6.65;;;3.40;;
69280;SDS011;56392;51.082;17.080;2022-08-01T10:26:36;6.85;;;3.25;;
69280;SDS011;56392;51.082;17.080;2022-08-01T10:31:40;7.60;;;3.23;;
69280;SDS011;56392;51.082;17.080;2022-08-01T10:36:44;7.93;;;3.22;;
69280;SDS011;56392;51.082;17.080;2022-08-01T10:41:49;7.90;;;3.10;;
69280;SDS011;56392;51.082;17.080;2022-08-01T10:46:53;6.47;;;3.20;;
69280;SDS011;56392;51.082;17.080;2022-08-01T10:51:59;6.82;;;3.35;;
69280;SDS011;56392;51.082;17.080;2022-08-01T10:57:03;6.30;;;3.20;;
69280;SDS011;56392;51.082;17.080;2022-08-01T11:02:07;7.57;;;3.28;;
69280;SDS011;56392;51.082;17.080;2022-08-01T11:07:13;10.63;;;3.33;;
69280;SDS011;56392;51.082;17.080;2022-08-01T11:12:21;9.52;;;3.70;;
69280;SDS011;56392;51.082;17.080;2022-08-01T11:17:40;8.68;;;3.95;;
69280;SDS011;56392;51.082;17.080;2022-08-01T11:28:29;7.68;;;3.95;;
69280;SDS011;56392;51.082;17.080;2022-08-01T11:39:12;8.60;;;3.63;;
69280;SDS011;56392;51.082;17.080;2022-08-01T11:44:21;9.95;;;4.00;;
69280;SDS011;56392;51.082;17.080;2022-08-01T11:49:33;8.38;;;3.92;;
69280;SDS011;56392;51.082;17.080;2022-08-01T11:54:47;8.95;;;3.95;;
69280;SDS011;56392;51.082;17.080;2022-08-01T11:59:53;7.60;;;3.67;;
69280;SDS011;56392;51.082;17.080;2022-08-01T12:04:58;7.50;;;3.78;;
69280;SDS011;56392;51.082;17.080;2022-08-01T12:10:04;8.93;;;3.88;;
69280;SDS011;56392;51.082;17.080;2022-08-01T12:15:10;8.43;;;3.90;;
69280;SDS011;56392;51.082;17.080;2022-08-01T12:20:14;7.85;;;3.60;;
69280;SDS011;56392;51.082;17.080;2022-08-01T12:25:21;6.97;;;3.53;;
69280;SDS011;56392;51.082;17.080;2022-08-01T12:30:25;6.77;;;3.27;;
69280;SDS011;56392;51.082;17.080;2022-08-01T12:35:29;7.20;;;3.60;;
69280;SDS011;56392;51.082;17.080;2022-08-01T12:40:32;8.32;;;3.83;;
69280;SDS011;56392;51.082;17.080;2022-08-01T12:45:39;7.85;;;3.60;;
69280;SDS011;56392;51.082;17.080;2022-08-01T12:50:45;6.97;;;3.20;;
69280;SDS011;56392;51.082;17.080;2022-08-01T12:55:51;6.53;;;3.40;;
69280;SDS011;56392;51.082;17.080;2022-08-01T13:01:03;9.30;;;3.40;;
69280;SDS011;56392;51.082;17.080;2022-08-01T13:06:10;7.67;;;3.47;;
69280;SDS011;56392;51.082;17.080;2022-08-01T13:11:15;6.38;;;3.50;;
69280;SDS011;56392;51.082;17.080;2022-08-01T13:16:21;8.07;;;3.30;;
69280;SDS011;56392;51.082;17.080;2022-08-01T13:21:27;6.60;;;3.23;;
69280;SDS011;56392;51.082;17.080;2022-08-01T13:26:37;6.95;;;3.60;;
69280;SDS011;56392;51.082;17.080;2022-08-01T13:31:47;7.07;;;4.10;;
69280;SDS011;56392;51.082;17.080;2022-08-01T13:36:50;7.07;;;3.95;;
69280;SDS011;56392;51.082;17.080;2022-08-01T13:41:54;6.77;;;3.70;;
69280;SDS011;56392;51.082;17.080;2022-08-01T13:46:58;9.93;;;4.00;;
69280;SDS011;56392;51.082;17.080;2022-08-01T13:52:01;8.30;;;3.80;;
69280;SDS011;56392;51.082;17.080;2022-08-01T13:57:07;7.37;;;3.93;;
69280;SDS011;56392;51.082;17.080;2022-08-01T14:02:11;6.97;;;3.45;;
69280;SDS011;56392;51.082;17.080;2022-08-01T14:07:14;9.30;;;2.95;;
69280;SDS011;56392;51.082;17.080;2022-08-01T14:12:16;5.50;;;2.30;;
69280;SDS011;56392;51.082;17.080;2022-08-01T14:17:20;5.75;;;3.15;;
69280;SDS011;56392;51.082;17.080;2022-08-01T14:22:23;7.70;;;2.85;;
69280;SDS011;56392;51.082;17.080;2022-08-01T14:27:26;5.95;;;2.78;;
69280;SDS011;56392;51.082;17.080;2022-08-01T14:32:32;6.53;;;3.20;;
69280;SDS011;56392;51.082;17.080;2022-08-01T14:37:35;6.18;;;2.92;;
69280;SDS011;56392;51.082;17.080;2022-08-01T14:42:38;6.53;;;2.75;;
69280;SDS011;56392;51.082;17.080;2022-08-01T14:47:43;5.50;;;2.90;;
69280;SDS011;56392;51.082;17.080;2022-08-01T14:52:47;7.78;;;3.00;;
69280;SDS011;56392;51.082;17.080;2022-08-01T14:57:50;6.32;;;2.67;;
69280;SDS011;56392;51.082;17.080;2022-08-01T15:02:54;6.03;;;2.60;;
69280;SDS011;56392;51.082;17.080;2022-08-01T15:07:56;5.60;;;2.70;;
69280;SDS011;56392;51.082;17.080;2022-08-01T15:12:59;5.32;;;2.22;;
69280;SDS011;56392;51.082;17.080;2022-08-01T15:18:05;6.75;;;2.30;;
69280;SDS011;56392;51.082;17.080;2022-08-01T15:23:07;5.97;;;2.50;;
69280;SDS011;56392;51.082;17.080;2022-08-01T15:28:10;6.82;;;2.63;;
69280;SDS011;56392;51.082;17.080;2022-08-01T15:33:14;5.32;;;2.05;;
69280;SDS011;56392;51.082;17.080;2022-08-01T15:38:17;5.77;;;2.10;;
69280;SDS011;56392;51.082;17.080;2022-08-01T15:43:20;4.90;;;1.90;;
69280;SDS011;56392;51.082;17.080;2022-08-01T15:48:24;8.40;;;2.30;;
69280;SDS011;56392;51.082;17.080;2022-08-01T15:53:26;6.63;;;2.10;;
69280;SDS011;56392;51.082;17.080;2022-08-01T15:58:29;6.57;;;1.83;;
69280;SDS011;56392;51.082;17.080;2022-08-01T16:03:33;8.95;;;1.80;;
69280;SDS011;56392;51.082;17.080;2022-08-01T16:08:36;4.43;;;1.40;;
69280;SDS011;56392;51.082;17.080;2022-08-01T16:13:39;9.00;;;1.70;;
69280;SDS011;56392;51.082;17.080;2022-08-01T16:18:43;4.03;;;1.40;;
69280;SDS011;56392;51.082;17.080;2022-08-01T16:23:46;4.90;;;1.58;;
69280;SDS011;56392;51.082;17.080;2022-08-01T16:28:48;5.03;;;1.20;;
69280;SDS011;56392;51.082;17.080;2022-08-01T16:33:56;5.47;;;1.30;;
69280;SDS011;56392;51.082;17.080;2022-08-01T16:38:59;3.28;;;0.95;;
69280;SDS011;56392;51.082;17.080;2022-08-01T16:44:02;3.03;;;0.90;;
69280;SDS011;56392;51.082;17.080;2022-08-01T16:49:06;3.30;;;0.90;;
69280;SDS011;56392;51.082;17.080;2022-08-01T16:54:09;5.93;;;1.00;;
69280;SDS011;56392;51.082;17.080;2022-08-01T16:59:12;4.00;;;1.10;;
69280;SDS011;56392;51.082;17.080;2022-08-01T17:04:16;3.20;;;1.03;;
69280;SDS011;56392;51.082;17.080;2022-08-01T17:09:18;6.97;;;1.13;;
69280;SDS011;56392;51.082;17.080;2022-08-01T17:14:21;3.35;;;1.00;;
69280;SDS011;56392;51.082;17.080;2022-08-01T17:19:25;2.90;;;0.80;;
69280;SDS011;56392;51.082;17.080;2022-08-01T17:24:30;3.30;;;0.80;;
69280;SDS011;56392;51.082;17.080;2022-08-01T17:29:33;4.60;;;0.82;;
69280;SDS011;56392;51.082;17.080;2022-08-01T17:34:37;3.70;;;0.80;;
69280;SDS011;56392;51.082;17.080;2022-08-01T17:39:40;4.28;;;1.00;;
69280;SDS011;56392;51.082;17.080;2022-08-01T17:44:42;4.18;;;1.00;;
69280;SDS011;56392;51.082;17.080;2022-08-01T17:49:46;3.92;;;1.00;;
69280;SDS011;56392;51.082;17.080;2022-08-01T17:54:49;4.40;;;1.10;;
69280;SDS011;56392;51.082;17.080;2022-08-01T17:59:51;3.22;;;1.15;;
69280;SDS011;56392;51.082;17.080;2022-08-01T18:04:56;5.07;;;1.35;;
69280;SDS011;56392;51.082;17.080;2022-08-01T18:09:59;4.57;;;1.20;;
69280;SDS011;56392;51.082;17.080;2022-08-01T18:15:01;3.70;;;1.15;;
69280;SDS011;56392;51.082;17.080;2022-08-01T18:20:08;5.95;;;1.52;;
69280;SDS011;56392;51.082;17.080;2022-08-01T18:25:11;5.53;;;1.60;;
69280;SDS011;56392;51.082;17.080;2022-08-01T18:30:14;5.35;;;1.60;;
69280;SDS011;56392;51.082;17.080;2022-08-01T18:35:18;6.90;;;2.08;;
69280;SDS011;56392;51.082;17.080;2022-08-01T18:40:21;4.72;;;1.80;;
69280;SDS011;56392;51.082;17.080;2022-08-01T18:45:24;7.53;;;1.87;;
69280;SDS011;56392;51.082;17.080;2022-08-01T18:50:28;5.35;;;1.98;;
69280;SDS011;56392;51.082;17.080;2022-08-01T18:55:31;7.95;;;2.20;;
69280;SDS011;56392;51.082;17.080;2022-08-01T19:00:34;7.67;;;2.03;;
69280;SDS011;56392;51.082;17.080;2022-08-01T19:05:38;6.03;;;1.92;;
69280;SDS011;56392;51.082;17.080;2022-08-01T19:10:41;6.53;;;2.30;;
69280;SDS011;56392;51.082;17.080;2022-08-01T19:15:43;5.70;;;2.33;;
69280;SDS011;56392;51.082;17.080;2022-08-01T19:20:47;6.78;;;2.35;;
69280;SDS011;56392;51.082;17.080;2022-08-01T19:25:50;6.97;;;2.20;;
69280;SDS011;56392;51.082;17.080;2022-08-01T19:30:56;5.47;;;2.30;;
69280;SDS011;56392;51.082;17.080;2022-08-01T19:36:04;8.77;;;3.03;;
69280;SDS011;56392;51.082;17.080;2022-08-01T19:41:09;7.85;;;2.50;;
69280;SDS011;56392;51.082;17.080;2022-08-01T19:46:16;7.22;;;2.70;;
69280;SDS011;56392;51.082;17.080;2022-08-01T19:51:21;5.97;;;2.57;;
69280;SDS011;56392;51.082;17.080;2022-08-01T19:56:25;6.50;;;2.75;;
69280;SDS011;56392;51.082;17.080;2022-08-01T20:01:30;6.10;;;2.40;;
69280;SDS011;56392;51.082;17.080;2022-08-01T20:06:34;5.97;;;2.57;;
69280;SDS011;56392;51.082;17.080;2022-08-01T20:11:39;5.85;;;2.70;;
69280;SDS011;56392;51.082;17.080;2022-08-01T20:16:46;6.15;;;2.25;;
69280;SDS011;56392;51.082;17.080;2022-08-01T20:21:52;6.20;;;2.53;;
69280;SDS011;56392;51.082;17.080;2022-08-01T20:26:57;6.27;;;2.60;;
69280;SDS011;56392;51.082;17.080;2022-08-01T20:32:02;6.20;;;2.53;;
69280;SDS011;56392;51.082;17.080;2022-08-01T20:37:06;6.25;;;2.70;;
69280;SDS011;56392;51.082;17.080;2022-08-01T20:42:10;7.03;;;2.80;;
69280;SDS011;56392;51.082;17.080;2022-08-01T20:47:13;7.50;;;2.92;;
69280;SDS011;56392;51.082;17.080;2022-08-01T20:52:18;7.45;;;3.10;;
69280;SDS011;56392;51.082;17.080;2022-08-01T20:57:21;6.87;;;2.70;;
69280;SDS011;56392;51.082;17.080;2022-08-01T21:02:29;6.50;;;2.60;;
69280;SDS011;56392;51.082;17.080;2022-08-01T21:07:41;6.07;;;2.90;;
69280;SDS011;56392;51.082;17.080;2022-08-01T21:12:52;8.10;;;3.00;;
69280;SDS011;56392;51.082;17.080;2022-08-01T21:18:02;7.80;;;3.30;;
69280;SDS011;56392;51.082;17.080;2022-08-01T21:23:12;8.02;;;3.10;;
69280;SDS011;56392;51.082;17.080;2022-08-01T21:28:19;7.20;;;3.17;;
69280;SDS011;56392;51.082;17.080;2022-08-01T21:33:23;7.67;;;3.20;;
69280;SDS011;56392;51.082;17.080;2022-08-01T21:38:28;7.15;;;3.25;;
69280;SDS011;56392;51.082;17.080;2022-08-01T21:43:32;8.05;;;3.65;;
69280;SDS011;56392;51.082;17.080;2022-08-01T21:48:35;6.73;;;3.17;;
69280;SDS011;56392;51.082;17.080;2022-08-01T21:53:42;9.77;;;3.80;;
69280;SDS011;56392;51.082;17.080;2022-08-01T21:58:53;7.68;;;3.40;;
69280;SDS011;56392;51.082;17.080;2022-08-01T22:04:01;7.83;;;3.67;;
69280;SDS011;56392;51.082;17.080;2022-08-01T22:09:09;9.63;;;3.50;;
69280;SDS011;56392;51.082;17.080;2022-08-01T22:14:11;7.45;;;3.45;;
69280;SDS011;56392;51.082;17.080;2022-08-01T22:19:16;9.63;;;3.70;;
69280;SDS011;56392;51.082;17.080;2022-08-01T22:24:20;7.27;;;3.13;;
69280;SDS011;56392;51.082;17.080;2022-08-01T22:29:24;7.40;;;3.50;;
69280;SDS011;56392;51.082;17.080;2022-08-01T22:34:29;8.18;;;3.65;;
69280;SDS011;56392;51.082;17.080;2022-08-01T22:39:32;8.83;;;3.80;;
69280;SDS011;56392;51.082;17.080;2022-08-01T22:44:38;8.45;;;3.70;;
69280;SDS011;56392;51.082;17.080;2022-08-01T22:49:50;7.10;;;3.80;;
69280;SDS011;56392;51.082;17.080;2022-08-01T22:55:04;7.80;;;3.60;;
69280;SDS011;56392;51.082;17.080;2022-08-01T23:00:09;8.70;;;5.00;;
69280;SDS011;56392;51.082;17.080;2022-08-01T23:05:13;7.80;;;3.95;;
69280;SDS011;56392;51.082;17.080;2022-08-01T23:10:22;7.72;;;3.70;;
69280;SDS011;56392;51.082;17.080;2022-08-01T23:15:27;8.37;;;3.20;;
69280;SDS011;56392;51.082;17.080;2022-08-01T23:20:31;6.70;;;3.60;;
69280;SDS011;56392;51.082;17.080;2022-08-01T23:25:36;7.40;;;3.03;;
69280;SDS011;56392;51.082;17.080;2022-08-01T23:30:40;9.30;;;3.30;;
69280;SDS011;56392;51.082;17.080;2022-08-01T23:35:44;7.28;;;3.47;;
69280;SDS011;56392;51.082;17.080;2022-08-01T23:40:48;7.43;;;3.75;;
69280;SDS011;56392;51.082;17.080;2022-08-01T23:45:51;7.20;;;3.60;;
69280;SDS011;56392;51.082;17.080;2022-08-01T23:50:53;7.07;;;3.40;;
69280;SDS011;56392;51.082;17.080;2022-08-01T23:55:57;6.70;;;3.15;;
